Lille, France

7:03 PM CET on December 06, 2016 (GMT +0100)
Lesquin | | Change Station

Elev 154 ft 50.57 °N, 3.10 °E | Updated 33 minutes ago

Clear
Clear
41 °F
Feels Like 38 °F
N
5
Wind Variable Wind from South

Today
High -- | Low -- °F
--% Chance of Precip.
Yesterday
High -- | Low -- °F
Precip. -- in
Pressure 30.42 in
Visibility 5.0 miles
Clouds
Windchill 38 °F
Dew Point 36 °F
Humidity 81%
Rainfall 0.00 in
Snow Depth Not available.
8:33 AM 4:43 PM
Waxing Crescent, 43% visible
METAR LFQQ 061730Z AUTO 19004KT 8000 NSC 05/02 Q1030 BECMG 4000 BR
Pressure 30.42 in
Visibility 5.0 miles
Clouds
Windchill 38 °F
Dew Point 36 °F
Humidity 81%
Rainfall 0.00 in
Snow Depth Not available.
8:33 AM 4:43 PM
Waxing Crescent, 43% visible
METAR LFQQ 061730Z AUTO 19004KT 8000 NSC 05/02 Q1030 BECMG 4000 BR

10-Day Weather Forecast

×

Almanac

Astronomy

Dec. 06, 2016 Rise Set
Actual Time
Civil Twilight
Nautical Twilight
Astronomical Twilight
Moon
Length of Visible Light
Length of Day
Tomorrow will be .
, % of the Moon is Illuminated

Today's Extremes

Country Highs Country Lows

Community

WunderPhotos

Upload Photos

1,955,986 photos uploaded!

WunderBlog® & News

Nearby

Air Quality

  Air Quality AQ Index Pollutant
Not available.

Snow Depth

Station Depth Elevation

Earthquake Activity

City Distance Mag. Time & Date
Minimum magnitude displayed is 2.5.

Coastal Water Temperatures

Place Temperature

Stations

Nearby Weather Stations

Station Location Temp. Windchill Dew Point Humidity Wind Precip. Elev Updated Type